Time;durP1;ratioP1;P1;durP2;ratioP2;P2;SDS_P1;SDS_P2;PMS_P1;PMS_P2;Temp;Humidity;BMP_temperature;BMP_pressure;BME280_temperature;BME280_humidity;BME280_pressure;Samples;Min_cycle;Max_cycle;Signal;HPM_P1;HPM_P2
2022/04/23 00:00:59;;;;;;;6.15;5.22;;;;;;;11.74;67.61;100671.47;5068212;28;20082;-83
2022/04/23 00:03:24;;;;;;;6.38;5.50;;;;;;;11.72;67.96;100675.03;5064399;28;20060;-83
2022/04/23 00:05:50;;;;;;;7.13;5.50;;;;;;;11.69;67.69;100677.78;5056080;28;20166;-83
2022/04/23 00:08:15;;;;;;;5.50;5.10;;;;;;;11.71;67.96;100675.09;5058313;28;20032;-84
2022/04/23 00:10:41;;;;;;;5.70;5.20;;;;;;;11.71;67.81;100675.97;5076586;28;20097;-83
2022/04/23 00:13:06;;;;;;;5.25;4.68;;;;;;;11.70;67.81;100670.78;5042002;28;20063;-83
2022/04/23 00:15:37;;;;;;;6.20;5.07;;;;;;;11.68;68.32;100670.00;5068554;28;20330;-84
2022/04/23 00:18:11;;;;;;;5.47;4.97;;;;;;;11.67;68.09;100670.91;5077202;28;20028;-84
2022/04/23 00:20:37;;;;;;;8.88;5.65;;;;;;;11.64;68.24;100668.44;5076058;28;20101;-83
2022/04/23 00:23:05;;;;;;;5.80;5.13;;;;;;;11.62;68.44;100659.78;5077085;28;20045;-83
2022/04/23 00:25:31;;;;;;;6.13;5.57;;;;;;;11.58;68.48;100664.34;5058071;28;20111;-83
2022/04/23 00:27:56;;;;;;;6.22;5.72;;;;;;;11.60;68.17;100664.25;5062775;28;20039;-83
2022/04/23 00:30:22;;;;;;;7.70;6.13;;;;;;;11.58;68.53;100672.19;5079735;28;20261;-83
2022/04/23 00:32:47;;;;;;;7.05;6.10;;;;;;;11.55;68.58;100656.63;5071998;28;20198;-83
2022/04/23 00:35:17;;;;;;;6.30;5.70;;;;;;;11.57;68.60;100662.66;5049142;28;20056;-83
2022/04/23 00:37:44;;;;;;;6.68;6.10;;;;;;;11.58;68.76;100650.38;5062976;28;20272;-83
2022/04/23 00:40:17;;;;;;;7.35;6.30;;;;;;;11.58;68.64;100659.09;5029739;28;20244;-83
2022/04/23 00:42:55;;;;;;;8.75;7.07;;;;;;;11.54;68.84;100660.16;5061248;28;20041;-84
2022/04/23 00:45:22;;;;;;;10.88;6.60;;;;;;;11.53;68.69;100655.81;5057135;28;20036;-83
2022/04/23 00:47:48;;;;;;;7.10;6.50;;;;;;;11.50;69.11;100663.88;5057125;28;20032;-83
2022/04/23 00:50:13;;;;;;;9.48;6.50;;;;;;;11.47;69.53;100659.59;5061435;28;20231;-83
2022/04/23 00:52:39;;;;;;;7.70;6.63;;;;;;;11.42;69.77;100658.13;5061766;28;20040;-83
2022/04/23 00:55:07;;;;;;;8.02;7.05;;;;;;;11.42;69.29;100656.34;5080109;28;20029;-83
2022/04/23 00:57:33;;;;;;;7.53;6.65;;;;;;;11.44;69.39;100654.50;5078980;28;20410;-83
2022/04/23 01:00:02;;;;;;;10.00;6.90;;;;;;;11.43;69.62;100644.09;5045796;28;20039;-83
2022/04/23 01:02:27;;;;;;;9.85;6.78;;;;;;;11.42;69.29;100655.50;5079691;28;20300;-83
2022/04/23 01:04:53;;;;;;;8.65;6.88;;;;;;;11.40;69.79;100655.56;5044862;28;20071;-83
2022/04/23 01:07:20;;;;;;;9.50;8.05;;;;;;;11.39;70.07;100655.63;5079316;28;20339;-83
2022/04/23 01:09:45;;;;;;;8.68;7.40;;;;;;;11.39;69.63;100648.63;5061956;28;20381;-83
2022/04/23 01:12:11;;;;;;;7.88;7.15;;;;;;;11.38;69.81;100646.91;5061565;28;20056;-83
2022/04/23 01:14:55;;;;;;;8.52;7.50;;;;;;;11.35;70.28;100649.72;5074703;28;20046;-83
2022/04/23 01:17:21;;;;;;;9.90;7.25;;;;;;;11.34;70.00;100654.09;5048825;28;20063;-83
2022/04/23 01:19:46;;;;;;;8.90;6.30;;;;;;;11.39;69.91;100655.63;5044838;28;20360;-83
2022/04/23 01:22:12;;;;;;;8.25;6.68;;;;;;;11.39;70.07;100653.88;5060623;28;20320;-83
2022/04/23 01:24:37;;;;;;;8.90;7.22;;;;;;;11.36;70.11;100647.94;5060203;28;20111;-83
2022/04/23 01:27:04;;;;;;;8.05;7.20;;;;;;;11.32;70.40;100648.06;5050368;28;20028;-83
2022/04/23 01:29:30;;;;;;;8.57;7.57;;;;;;;11.35;70.18;100647.09;5078409;28;20048;-83
2022/04/23 01:31:56;;;;;;;7.60;6.90;;;;;;;11.34;70.01;100648.84;5036537;28;20347;-83
2022/04/23 01:34:21;;;;;;;8.00;7.20;;;;;;;11.27;70.63;100644.81;5067173;28;20032;-83
2022/04/23 01:36:46;;;;;;;8.02;7.22;;;;;;;11.27;70.60;100655.28;5057282;28;20086;-83
2022/04/23 01:39:15;;;;;;;10.93;7.82;;;;;;;11.21;71.01;100647.72;5061104;28;20059;-83
2022/04/23 01:41:40;;;;;;;10.45;8.30;;;;;;;11.20;71.10;100650.41;5061523;28;20354;-83
2022/04/23 01:44:05;;;;;;;19.10;7.72;;;;;;;11.20;71.18;100655.66;5060040;28;20044;-83
2022/04/23 01:46:31;;;;;;;9.38;7.85;;;;;;;11.20;71.11;100660.88;5078029;28;20404;-83
2022/04/23 01:48:57;;;;;;;9.80;7.70;;;;;;;11.21;71.23;100652.13;5074123;28;20040;-83
2022/04/23 01:51:23;;;;;;;8.52;7.75;;;;;;;11.21;71.01;100649.50;5060348;28;20131;-83
2022/04/23 01:53:49;;;;;;;9.02;8.13;;;;;;;11.19;71.32;100656.56;5078409;28;20063;-83
2022/04/23 01:56:14;;;;;;;15.00;9.25;;;;;;;11.17;71.55;100651.41;5060398;28;20111;-83
2022/04/23 01:58:39;;;;;;;9.80;8.23;;;;;;;11.14;71.57;100655.00;5060487;28;20090;-84
2022/04/23 02:01:05;;;;;;;8.48;7.78;;;;;;;11.18;71.30;100654.88;5078871;28;20032;-83
2022/04/23 02:03:31;;;;;;;8.93;8.07;;;;;;;11.17;71.30;100654.03;5043327;28;20090;-83
2022/04/23 02:05:57;;;;;;;8.90;8.00;;;;;;;11.19;71.24;100648.69;5060768;28;20247;-83
2022/04/23 02:08:22;;;;;;;9.30;8.30;;;;;;;11.15;71.47;100653.22;5052825;28;20033;-83
2022/04/23 02:10:47;;;;;;;10.23;8.90;;;;;;;11.17;71.29;100656.66;5058564;28;20032;-83
2022/04/23 02:13:13;;;;;;;10.82;8.82;;;;;;;11.12;72.07;100648.97;5068961;28;20366;-83
2022/04/23 02:15:40;;;;;;;10.38;9.20;;;;;;;11.07;72.22;100652.75;5078539;28;20108;-83
2022/04/23 02:18:06;;;;;;;10.63;9.60;;;;;;;11.06;71.85;100651.91;5057092;28;20245;-83
2022/04/23 02:20:32;;;;;;;11.13;9.30;;;;;;;11.02;72.51;100652.94;5058569;28;20494;-83
2022/04/23 02:22:57;;;;;;;10.95;9.60;;;;;;;11.00;72.71;100640.84;5033216;28;20575;-83
2022/04/23 02:25:24;;;;;;;12.35;9.82;;;;;;;11.03;72.33;100641.53;5060405;28;20279;-83
2022/04/23 02:27:50;;;;;;;11.43;9.70;;;;;;;11.01;72.44;100646.00;5078458;28;20056;-83
2022/04/23 02:30:22;;;;;;;14.60;10.98;;;;;;;10.98;72.40;100650.53;5024261;28;20036;-83
2022/04/23 02:32:48;;;;;;;10.98;9.75;;;;;;;10.95;72.62;100649.75;5063838;28;20064;-83
2022/04/23 02:35:16;;;;;;;11.60;9.80;;;;;;;10.95;72.58;100652.38;5059713;28;20051;-83
2022/04/23 02:37:44;;;;;;;14.43;10.48;;;;;;;10.96;72.67;100653.22;5060342;28;20052;-83
2022/04/23 02:40:10;;;;;;;15.63;10.88;;;;;;;10.91;73.10;100661.31;5077431;28;20126;-82
2022/04/23 02:42:37;;;;;;;12.38;11.13;;;;;;;10.91;73.12;100656.06;5077573;28;20062;-82
2022/04/23 02:45:06;;;;;;;11.65;10.43;;;;;;;10.87;73.30;100659.72;5077909;28;20028;-82
2022/04/23 02:47:52;;;;;;;12.80;11.40;;;;;;;10.90;73.35;100661.38;5076698;28;20236;-83
2022/04/23 02:50:27;;;;;;;12.32;10.88;;;;;;;10.90;73.01;100659.59;5077073;28;20056;-82
2022/04/23 02:52:55;;;;;;;11.98;10.77;;;;;;;10.91;73.18;100666.56;5059628;28;20394;-82
2022/04/23 02:55:23;;;;;;;15.50;11.52;;;;;;;10.88;73.16;100669.31;5059569;28;20096;-82
2022/04/23 02:57:48;;;;;;;11.88;10.70;;;;;;;10.85;73.35;100656.31;5077166;28;20032;-82
2022/04/23 03:00:14;;;;;;;13.65;11.13;;;;;;;10.81;73.52;100660.00;5042859;28;20036;-82
2022/04/23 03:02:40;;;;;;;15.27;11.95;;;;;;;10.82;73.37;100664.31;5059515;28;20036;-82
2022/04/23 03:05:09;;;;;;;12.52;11.23;;;;;;;10.84;73.43;100661.63;5070281;28;20240;-82
2022/04/23 03:07:35;;;;;;;17.10;11.73;;;;;;;10.82;73.84;100666.09;5045073;28;20351;-82
2022/04/23 03:10:05;;;;;;;14.43;11.52;;;;;;;10.86;73.46;100659.78;5077082;28;20106;-82
2022/04/23 03:12:30;;;;;;;12.52;10.77;;;;;;;10.86;73.29;100657.16;5059198;28;20332;-82
2022/04/23 03:14:56;;;;;;;15.32;11.75;;;;;;;10.83;73.71;100665.19;5077190;28;20029;-82
2022/04/23 03:17:22;;;;;;;12.70;11.35;;;;;;;10.83;73.65;100663.41;5077270;28;20064;-82
2022/04/23 03:19:47;;;;;;;17.38;12.57;;;;;;;10.83;73.72;100654.72;5076981;28;20240;-82
2022/04/23 03:22:14;;;;;;;15.35;12.23;;;;;;;10.82;73.97;100655.63;5077141;28;20051;-82
2022/04/23 03:24:40;;;;;;;13.73;11.70;;;;;;;10.78;74.01;100656.69;5077221;28;20052;-82
2022/04/23 03:27:06;;;;;;;15.70;12.07;;;;;;;10.76;74.12;100651.50;5059558;28;20106;-82
2022/04/23 03:29:32;;;;;;;17.02;11.85;;;;;;;10.75;74.36;100648.03;5018991;28;20404;-82
2022/04/23 03:31:58;;;;;;;14.45;12.02;;;;;;;10.78;74.03;100654.06;5039476;28;20059;-82
2022/04/23 03:34:23;;;;;;;16.95;12.80;;;;;;;10.76;73.60;100647.09;5056239;28;20029;-82
2022/04/23 03:36:49;;;;;;;15.00;12.75;;;;;;;10.78;73.91;100654.91;5059197;28;20039;-82
2022/04/23 03:39:15;;;;;;;15.02;12.73;;;;;;;10.75;74.25;100642.81;5040887;28;20057;-82
2022/04/23 03:41:40;;;;;;;14.32;12.30;;;;;;;10.73;74.50;100649.00;5058701;28;20053;-82
2022/04/23 03:44:06;;;;;;;16.10;13.15;;;;;;;10.70;74.71;100644.78;5076675;28;20334;-83
2022/04/23 03:46:31;;;;;;;24.55;13.60;;;;;;;10.69;74.79;100652.69;5076901;28;20043;-82
2022/04/23 03:48:56;;;;;;;14.10;12.50;;;;;;;10.64;75.21;100646.78;5062484;28;20347;-83
2022/04/23 03:51:22;;;;;;;16.30;12.60;;;;;;;10.67;74.89;100642.28;5058760;28;20045;-82
2022/04/23 03:53:47;;;;;;;15.65;12.65;;;;;;;10.67;75.13;100644.06;5059200;28;20044;-82
2022/04/23 03:56:12;;;;;;;17.60;12.80;;;;;;;10.68;74.90;100648.38;5043028;28;20037;-82
2022/04/23 03:58:38;;;;;;;17.52;13.55;;;;;;;10.67;74.97;100642.28;5049693;28;20037;-82
2022/04/23 04:01:04;;;;;;;14.23;12.20;;;;;;;10.70;74.83;100643.94;5074161;28;20367;-83
2022/04/23 04:03:30;;;;;;;17.30;14.25;;;;;;;10.64;75.46;100638.94;5042570;28;20028;-82
2022/04/23 04:05:55;;;;;;;17.48;14.10;;;;;;;10.66;75.41;100631.84;5041023;28;20070;-82
2022/04/23 04:08:20;;;;;;;17.88;13.48;;;;;;;10.64;75.47;100631.09;5062930;28;20041;-82
2022/04/23 04:10:46;;;;;;;15.32;12.82;;;;;;;10.65;75.12;100638.03;5046027;28;20045;-82
2022/04/23 04:13:14;;;;;;;15.13;13.20;;;;;;;10.66;75.11;100624.88;5046255;28;20033;-82
2022/04/23 04:15:43;;;;;;;18.85;14.20;;;;;;;10.64;75.17;100624.09;5080510;28;20032;-83
2022/04/23 04:18:08;;;;;;;;;;;;;;;10.64;75.33;100616.25;5062713;28;20047;-83
2022/04/23 04:20:34;;;;;;;20.10;13.75;;;;;;;10.64;75.41;100618.00;5078367;28;20227;-82
2022/04/23 04:23:01;;;;;;;17.95;13.90;;;;;;;10.64;75.43;100620.59;5026391;28;20025;-82
2022/04/23 04:25:26;;;;;;;16.13;13.20;;;;;;;10.65;75.45;100619.69;5046956;28;20091;-82
2022/04/23 04:27:52;;;;;;;17.77;13.70;;;;;;;10.65;75.34;100607.44;5027280;28;20341;-82
2022/04/23 04:30:18;;;;;;;18.45;13.77;;;;;;;10.64;75.67;100612.75;5049004;28;20051;-83
2022/04/23 04:32:43;;;;;;;20.30;15.52;;;;;;;10.62;75.72;100609.34;5080308;28;20032;-82
2022/04/23 04:35:10;;;;;;;18.17;15.20;;;;;;;10.60;75.84;100613.81;5045410;28;20367;-82
2022/04/23 04:37:36;;;;;;;18.08;14.85;;;;;;;10.59;75.75;100606.84;5061544;28;20360;-82
2022/04/23 04:40:03;;;;;;;17.95;14.77;;;;;;;10.59;75.86;100610.34;5062370;28;20028;-82
2022/04/23 04:42:29;;;;;;;22.20;15.30;;;;;;;10.56;76.01;100613.09;5061853;28;20041;-82
2022/04/23 04:44:55;;;;;;;19.25;15.60;;;;;;;10.55;75.88;100607.03;5051816;28;20047;-82
2022/04/23 04:47:22;;;;;;;17.73;15.65;;;;;;;10.55;76.24;100611.38;5044099;28;20029;-82
2022/04/23 04:49:47;;;;;;;21.52;15.20;;;;;;;10.54;76.42;100607.09;5044522;28;20257;-82
2022/04/23 04:52:12;;;;;;;17.42;15.18;;;;;;;10.53;76.27;100610.59;5077814;28;20343;-82
2022/04/23 04:54:38;;;;;;;19.70;16.55;;;;;;;10.51;76.47;100618.56;5052232;28;20038;-82
2022/04/23 04:57:03;;;;;;;19.23;16.30;;;;;;;10.52;76.56;100620.22;5075674;28;20293;-82
2022/04/23 04:59:33;;;;;;;20.02;15.77;;;;;;;10.49;76.84;100617.75;5041039;28;20076;-82
2022/04/23 05:02:01;;;;;;;18.88;15.50;;;;;;;10.50;76.63;100619.47;5056676;28;20062;-82
2022/04/23 05:04:27;;;;;;;17.42;14.98;;;;;;;10.53;76.25;100624.56;5060044;28;20040;-83
2022/04/23 05:06:53;;;;;;;20.10;16.15;;;;;;;10.53;76.40;100624.56;5066787;28;20052;-83
2022/04/23 05:09:18;;;;;;;17.73;15.18;;;;;;;10.54;76.68;100631.50;5078244;28;20221;-82
2022/04/23 05:11:44;;;;;;;20.83;15.55;;;;;;;10.56;76.40;100629.66;5074873;28;20044;-82
2022/04/23 05:14:10;;;;;;;18.77;15.40;;;;;;;10.55;76.72;100635.81;5070636;28;20028;-82
2022/04/23 05:16:35;;;;;;;18.13;15.43;;;;;;;10.54;76.45;100630.66;5053870;28;20244;-83
2022/04/23 05:19:01;;;;;;;19.23;14.70;;;;;;;10.52;76.87;100635.09;5074034;28;20043;-83
2022/04/23 05:21:26;;;;;;;18.40;15.05;;;;;;;10.52;76.56;100633.34;5059482;28;20040;-83
2022/04/23 05:23:51;;;;;;;16.77;14.00;;;;;;;10.56;76.27;100631.44;5062501;28;20078;-82
2022/04/23 05:26:17;;;;;;;17.23;14.57;;;;;;;10.56;76.38;100631.44;5073390;28;20044;-82
2022/04/23 05:28:42;;;;;;;18.50;14.63;;;;;;;10.52;76.59;100633.34;5046812;28;20040;-82
2022/04/23 05:31:09;;;;;;;17.40;15.10;;;;;;;10.53;76.92;100634.16;5054700;28;20036;-83
2022/04/23 05:33:35;;;;;;;19.73;16.40;;;;;;;10.49;76.59;100633.44;5055981;28;20256;-82
2022/04/23 05:36:01;;;;;;;22.20;16.65;;;;;;;10.46;77.07;100632.72;5040278;28;20340;-82
2022/04/23 05:38:26;;;;;;;23.02;16.33;;;;;;;10.46;77.14;100635.34;5069690;28;20083;-82
2022/04/23 05:40:51;;;;;;;22.80;16.85;;;;;;;10.42;77.16;100629.41;5069132;28;20059;-82
2022/04/23 05:43:17;;;;;;;25.73;16.10;;;;;;;10.44;77.35;100638.06;5060357;28;20032;-83
2022/04/23 05:45:43;;;;;;;18.85;15.57;;;;;;;10.43;77.07;100636.34;5079197;28;20036;-82
2022/04/23 05:48:09;;;;;;;22.33;16.70;;;;;;;10.42;77.59;100642.50;5043931;28;20108;-83
2022/04/23 05:50:34;;;;;;;19.75;16.50;;;;;;;10.42;77.53;100639.88;5044220;28;20236;-82
2022/04/23 05:53:00;;;;;;;19.58;16.60;;;;;;;10.42;77.85;100639.88;5075609;28;20340;-83
2022/04/23 05:55:25;;;;;;;21.55;17.83;;;;;;;10.44;77.84;100645.03;5039782;28;20045;-82
2022/04/23 05:57:51;;;;;;;23.05;17.65;;;;;;;10.42;77.89;100639.88;5070376;28;20024;-83
2022/04/23 06:00:17;;;;;;;19.40;16.33;;;;;;;10.44;77.60;100642.44;5078274;28;20082;-83
2022/04/23 06:02:42;;;;;;;25.00;18.75;;;;;;;10.44;77.86;100643.31;5078260;28;20099;-82
2022/04/23 06:05:08;;;;;;;24.15;17.60;;;;;;;10.44;78.02;100650.28;5060579;28;20376;-83
2022/04/23 06:07:34;;;;;;;21.05;17.83;;;;;;;10.45;78.29;100644.97;5078406;28;20037;-83
2022/04/23 06:10:00;;;;;;;25.15;18.27;;;;;;;10.44;78.02;100637.19;5058680;28;20032;-82
2022/04/23 06:12:25;;;;;;;21.92;17.63;;;;;;;10.41;78.78;100640.81;5040097;28;20033;-83
2022/04/23 06:14:51;;;;;;;23.23;17.23;;;;;;;10.42;78.25;100647.72;5045202;28;20039;-83
2022/04/23 06:17:25;;;;;;;21.02;18.67;;;;;;;10.41;78.44;100643.41;5069710;28;20068;-82
2022/04/23 06:19:51;;;;;;;21.52;17.88;;;;;;;10.44;78.08;100650.28;5058241;28;20048;-83
2022/04/23 06:22:16;;;;;;;25.88;19.42;;;;;;;10.40;78.64;100640.88;5026972;28;20240;-83
2022/04/23 06:24:42;;;;;;;27.52;18.83;;;;;;;10.40;78.64;100636.47;5063936;28;20036;-83
2022/04/23 06:27:07;;;;;;;23.70;17.83;;;;;;;10.44;78.43;100637.19;5040724;28;20033;-82
2022/04/23 06:29:33;;;;;;;26.77;19.33;;;;;;;10.41;78.55;100629.50;5077353;28;20107;-82
2022/04/23 06:31:58;;;;;;;25.60;18.60;;;;;;;10.44;78.37;100630.22;5058317;28;20045;-82
2022/04/23 06:34:24;;;;;;;26.35;19.05;;;;;;;10.44;78.79;100622.34;5053751;28;20487;-82
2022/04/23 06:36:49;;;;;;;25.25;19.33;;;;;;;10.46;78.69;100628.38;5053622;28;20108;-82
2022/04/23 06:39:14;;;;;;;23.40;18.95;;;;;;;10.49;78.62;100619.53;5073312;28;20064;-82
2022/04/23 06:41:40;;;;;;;25.33;19.13;;;;;;;10.52;78.50;100625.47;5033641;28;20036;-82
2022/04/23 06:44:05;;;;;;;23.25;19.05;;;;;;;10.55;78.56;100629.72;5058052;28;20044;-83
2022/04/23 06:46:30;;;;;;;24.27;19.55;;;;;;;10.56;78.42;100629.66;5073002;28;20055;-82
2022/04/23 06:49:00;;;;;;;25.90;19.65;;;;;;;10.55;78.25;100617.50;5053437;28;20290;-82
2022/04/23 06:51:25;;;;;;;;;;;;;;;10.59;78.20;100627.81;5076533;28;20097;-82
2022/04/23 06:53:50;;;;;;;26.70;19.58;;;;;;;10.57;78.14;100626.13;5059467;28;19983;-82
2022/04/23 06:56:16;;;;;;;22.80;19.08;;;;;;;10.59;78.37;100618.22;5075877;28;20044;-82
2022/04/23 06:58:43;;;;;;;26.05;19.33;;;;;;;10.60;78.40;100622.50;5076122;28;20044;-82
2022/04/23 07:01:09;;;;;;;24.98;19.75;;;;;;;10.60;78.36;100619.91;5048404;28;20542;-82
2022/04/23 07:03:34;;;;;;;24.15;18.90;;;;;;;10.62;78.33;100627.69;5055444;28;20043;-82
2022/04/23 07:05:59;;;;;;;23.27;18.90;;;;;;;10.65;78.59;100622.31;5076075;28;20044;-82
2022/04/23 07:08:25;;;;;;;22.98;18.98;;;;;;;10.70;78.34;100622.97;5072774;28;20082;-82
2022/04/23 07:10:50;;;;;;;24.48;19.15;;;;;;;10.71;78.09;100615.06;5073244;28;20068;-82
2022/04/23 07:13:15;;;;;;;24.80;19.27;;;;;;;10.73;77.90;100618.44;5049839;28;20041;-82
2022/04/23 07:15:41;;;;;;;26.20;18.98;;;;;;;10.76;77.94;100622.69;5058256;28;20055;-82
2022/04/23 07:18:08;;;;;;;25.05;18.85;;;;;;;10.79;77.98;100626.94;5049673;28;20320;-82
2022/04/23 07:20:33;;;;;;;22.10;17.88;;;;;;;10.82;77.75;100626.78;5057610;28;20094;-82
2022/04/23 07:25:42;;;;;;;27.15;18.08;;;;;;;10.88;77.44;100618.69;5074193;28;20063;-82
2022/04/23 07:28:08;;;;;;;25.50;17.77;;;;;;;10.92;77.10;100615.00;5053874;28;20032;-82
2022/04/23 07:30:35;;;;;;;27.95;18.73;;;;;;;10.93;77.16;100612.31;5046431;28;20051;-82
2022/04/23 07:33:01;;;;;;;24.52;18.17;;;;;;;10.96;77.03;100611.31;5076070;28;20040;-82
2022/04/23 07:38:18;;;;;;;22.02;17.40;;;;;;;11.06;76.77;100609.09;5063418;28;20105;-82
2022/04/23 07:40:44;;;;;;;21.52;17.80;;;;;;;11.09;76.26;100601.09;5057994;28;20229;-82
2022/04/23 07:43:12;;;;;;;20.30;16.60;;;;;;;11.11;76.02;100608.00;5057863;28;20036;-82
2022/04/23 07:45:47;;;;;;;20.45;16.63;;;;;;;11.16;76.26;100609.53;5057956;28;20063;-82
2022/04/23 07:48:13;;;;;;;22.33;17.42;;;;;;;11.19;76.28;100593.66;5057491;28;20352;-82
2022/04/23 07:50:41;;;;;;;18.80;16.55;;;;;;;11.25;76.11;100596.84;5076235;28;20051;-82
2022/04/23 07:53:09;;;;;;;22.02;16.58;;;;;;;11.26;75.79;100592.44;5073362;28;20606;-83
2022/04/23 07:55:38;;;;;;;25.77;17.85;;;;;;;11.32;75.86;100597.41;5069079;28;20335;-82
2022/04/23 07:58:09;;;;;;;19.48;16.35;;;;;;;11.33;75.14;100581.59;5052373;28;20044;-82
2022/04/23 08:00:35;;;;;;;18.58;16.63;;;;;;;11.39;75.39;100596.19;5057703;28;20194;-82
2022/04/23 08:03:04;;;;;;;22.38;16.95;;;;;;;11.43;75.40;100589.03;5074824;28;20064;-82
2022/04/23 08:05:30;;;;;;;25.92;16.88;;;;;;;11.49;74.94;100588.72;5075498;28;20361;-82
2022/04/23 08:07:55;;;;;;;22.58;17.33;;;;;;;11.52;74.92;100584.19;5075792;28;20103;-82
2022/04/23 08:10:21;;;;;;;23.67;17.17;;;;;;;11.57;74.67;100588.34;5032740;28;20276;-82
2022/04/23 08:12:46;;;;;;;19.73;16.55;;;;;;;11.60;74.82;100578.56;5054061;28;20032;-82
2022/04/23 08:15:12;;;;;;;20.65;17.52;;;;;;;11.63;73.83;100581.03;5035158;28;20398;-82
2022/04/23 08:17:38;;;;;;;27.77;17.05;;;;;;;11.66;74.04;100578.28;5074456;28;20113;-82
2022/04/23 08:20:05;;;;;;;25.40;17.33;;;;;;;11.69;73.59;100569.38;5071127;28;20032;-82
2022/04/23 08:22:30;;;;;;;19.38;16.55;;;;;;;11.75;73.45;100578.72;5053865;28;20107;-83
2022/04/23 08:24:56;;;;;;;57.25;17.20;;;;;;;11.78;72.99;100568.09;5041226;28;20068;-82
2022/04/23 08:27:21;;;;;;;24.42;16.80;;;;;;;11.80;72.67;100572.31;5074650;28;20029;-83
2022/04/23 08:32:31;;;;;;;19.52;16.30;;;;;;;11.89;73.50;100568.38;5059596;28;20232;-83
2022/04/23 08:34:56;;;;;;;18.33;15.93;;;;;;;11.95;73.41;100562.88;5061724;28;20119;-83
2022/04/23 08:37:22;;;;;;;19.00;16.05;;;;;;;12.00;72.81;100565.25;5040597;28;20064;-82
2022/04/23 08:39:48;;;;;;;19.55;15.70;;;;;;;12.07;72.89;100564.00;5058045;28;20374;-82
2022/04/23 08:42:18;;;;;;;18.67;16.20;;;;;;;12.09;72.80;100567.41;5066344;28;20059;-82
2022/04/23 08:44:43;;;;;;;24.02;16.58;;;;;;;12.17;72.81;100562.63;5072952;28;20094;-82
2022/04/23 08:47:11;;;;;;;19.15;16.20;;;;;;;12.22;72.15;100557.97;5045477;28;20032;-83
2022/04/23 08:49:40;;;;;;;20.73;16.38;;;;;;;12.27;71.64;100550.69;5079872;28;20430;-82
2022/04/23 08:52:16;;;;;;;20.30;15.50;;;;;;;12.32;71.09;100554.88;5079934;28;20028;-82
2022/04/23 08:54:42;;;;;;;23.02;15.95;;;;;;;12.34;70.91;100545.97;5077262;28;20367;-83
2022/04/23 08:57:07;;;;;;;20.98;16.30;;;;;;;12.36;70.46;100564.28;5062547;28;20036;-83
2022/04/23 08:59:33;;;;;;;19.92;15.57;;;;;;;12.37;70.71;100548.47;5061677;28;20040;-83
2022/04/23 09:02:02;;;;;;;23.70;15.40;;;;;;;12.38;70.85;100572.94;5080004;28;20036;-83
2022/04/23 09:04:28;;;;;;;17.75;14.98;;;;;;;12.41;70.38;100557.03;5080259;28;20045;-83
2022/04/23 09:06:54;;;;;;;20.23;15.90;;;;;;;12.41;69.80;100549.97;5080080;28;20039;-83
2022/04/23 09:09:23;;;;;;;20.60;15.00;;;;;;;12.43;69.82;100553.38;5061171;28;20244;-83
2022/04/23 09:11:57;;;;;;;17.13;15.43;;;;;;;12.47;70.05;100560.16;5072207;28;20343;-83
2022/04/23 09:14:30;;;;;;;19.15;15.10;;;;;;;12.52;70.30;100554.66;5065662;28;20041;-83
2022/04/23 09:25:36;;;;;;;19.95;15.15;;;;;;;12.78;69.39;100555.88;5075863;28;20039;-83
2022/04/23 09:28:24;;;;;;;22.45;15.38;;;;;;;12.85;68.92;100557.25;5061104;28;20225;-83
2022/04/23 09:30:51;;;;;;;16.90;14.52;;;;;;;12.91;68.75;100547.34;5079526;28;20060;-83
2022/04/23 09:33:17;;;;;;;19.25;15.23;;;;;;;12.94;68.42;100545.38;5061850;28;20091;-83
2022/04/23 09:36:02;;;;;;;22.10;15.13;;;;;;;12.98;68.11;100543.44;5056393;28;20040;-83
2022/04/23 09:38:29;;;;;;;18.92;14.57;;;;;;;12.99;67.57;100550.41;5076110;28;20052;-83
2022/04/23 09:41:21;;;;;;;34.67;14.57;;;;;;;12.97;67.51;100547.84;5079459;28;20113;-83
2022/04/23 09:43:51;;;;;;;18.67;14.40;;;;;;;12.97;67.23;100549.63;5073195;28;20070;-83
2022/04/23 09:46:17;;;;;;;18.95;15.18;;;;;;;12.96;67.04;100547.94;5079342;28;20035;-83
2022/04/23 09:48:43;;;;;;;16.65;14.18;;;;;;;12.94;67.26;100547.19;5051709;28;20040;-83
2022/04/23 09:51:24;;;;;;;20.52;15.18;;;;;;;12.93;67.83;100554.19;5070492;28;20336;-83
2022/04/23 09:53:51;;;;;;;17.10;14.80;;;;;;;12.98;67.75;100552.16;5074203;28;20120;-82
2022/04/23 09:56:18;;;;;;;24.08;15.02;;;;;;;13.01;67.73;100552.00;5044652;28;20044;-82
2022/04/23 09:58:43;;;;;;;16.48;14.52;;;;;;;13.02;67.74;100558.97;5059623;28;20402;-83
2022/04/23 10:01:08;;;;;;;22.58;15.50;;;;;;;13.04;67.69;100548.34;5070835;28;20055;-83
2022/04/23 10:03:34;;;;;;;16.50;14.82;;;;;;;13.07;67.76;100550.81;5059842;28;20062;-83
2022/04/23 10:06:04;;;;;;;21.48;16.67;;;;;;;13.11;67.61;100552.31;5069237;28;20082;-83
2022/04/23 10:08:33;;;;;;;18.35;16.15;;;;;;;13.17;67.84;100546.75;5075459;28;20044;-82
2022/04/23 10:11:28;;;;;;;17.92;14.88;;;;;;;13.21;67.79;100547.41;5073917;28;20089;-83
2022/04/23 10:14:01;;;;;;;18.75;14.60;;;;;;;13.27;67.52;100547.06;5078875;28;20069;-83
2022/04/23 10:16:31;;;;;;;16.33;14.63;;;;;;;13.30;67.25;100546.03;5061507;28;20091;-83
2022/04/23 10:18:57;;;;;;;24.75;15.65;;;;;;;13.30;67.85;100552.16;5060800;28;20028;-83
2022/04/23 10:21:44;;;;;;;18.95;15.95;;;;;;;13.32;67.89;100547.69;5053342;28;20039;-83
2022/04/23 10:24:18;;;;;;;20.15;15.73;;;;;;;13.33;67.53;100552.00;5072117;28;20032;-83
2022/04/23 10:27:09;;;;;;;22.13;15.98;;;;;;;13.37;67.34;100550.91;5073842;28;20031;-83
2022/04/23 10:29:35;;;;;;;22.42;15.60;;;;;;;13.41;67.16;100547.16;5041021;28;20040;-83
2022/04/23 10:32:10;;;;;;;25.77;16.13;;;;;;;13.44;66.95;100546.13;5053005;28;20336;-83
2022/04/23 10:34:36;;;;;;;19.83;16.08;;;;;;;13.48;66.51;100542.41;5071014;28;20272;-83
2022/04/23 10:37:18;;;;;;;19.90;15.35;;;;;;;13.55;66.65;100542.88;5060114;28;20036;-83
2022/04/23 10:39:45;;;;;;;18.73;15.95;;;;;;;13.62;67.00;100536.31;5071646;28;20092;-83
2022/04/23 10:42:14;;;;;;;23.10;16.20;;;;;;;13.71;66.77;100534.94;5052612;28;20029;-83
2022/04/23 10:44:43;;;;;;;23.05;15.50;;;;;;;13.81;66.98;100533.47;5071908;28;20333;-83
2022/04/23 10:47:12;;;;;;;;;;;;;;;13.93;66.83;100532.72;5060206;28;20063;-83
2022/04/23 10:49:37;;;;;;;22.02;16.10;;;;;;;14.05;66.06;100532.97;5077214;28;19917;-83
2022/04/23 10:52:03;;;;;;;26.63;16.48;;;;;;;14.07;65.36;100539.81;5059624;28;20078;-83
2022/04/23 10:54:41;;;;;;;24.35;16.15;;;;;;;14.10;64.63;100533.50;5053834;28;20032;-83
2022/04/23 10:57:15;;;;;;;18.38;15.60;;;;;;;14.15;65.07;100534.06;5054079;28;20231;-83
2022/04/23 10:59:50;;;;;;;20.85;16.92;;;;;;;14.24;65.01;100527.41;5041548;28;20044;-83
2022/04/23 11:02:21;;;;;;;22.35;16.80;;;;;;;14.35;64.94;100533.72;5055073;28;20104;-83
2022/04/23 11:13:56;;;;;;;23.33;16.63;;;;;;;14.59;63.52;100512.94;5070669;28;20146;-83
2022/04/23 11:16:23;;;;;;;27.67;17.20;;;;;;;14.62;63.25;100519.81;5074944;28;20040;-83
2022/04/23 11:18:50;;;;;;;18.23;15.52;;;;;;;14.73;63.17;100505.94;5071928;28;20048;-83
2022/04/23 11:21:23;;;;;;;23.65;15.77;;;;;;;14.83;63.17;100514.13;5076707;28;20028;-83
2022/04/23 11:23:49;;;;;;;25.45;16.60;;;;;;;14.88;62.93;100507.63;5068861;28;20048;-83
2022/04/23 11:26:22;;;;;;;23.30;15.98;;;;;;;14.93;62.58;100516.06;5058062;28;20029;-83
2022/04/23 11:28:57;;;;;;;24.85;17.10;;;;;;;14.95;61.33;100518.59;5060084;28;20040;-83
2022/04/23 11:31:23;;;;;;;20.23;16.48;;;;;;;14.91;61.21;100499.50;5055438;28;20367;-83
2022/04/23 11:33:53;;;;;;;18.40;15.52;;;;;;;14.89;62.47;100513.75;5066879;28;20044;-83
2022/04/23 11:36:19;;;;;;;24.63;15.32;;;;;;;14.85;61.79;100504.34;5068588;28;20324;-83
2022/04/23 11:38:44;;;;;;;21.58;16.02;;;;;;;14.83;62.18;100504.44;5064965;28;20117;-83
2022/04/23 11:41:10;;;;;;;25.92;16.48;;;;;;;14.84;61.44;100505.28;5043327;28;20086;-83